Haven, Kansas
Current Conditions -  °F | °C
As of 3:52 AM on Saturday 29 Nov 2014 (Local Time) from KHUT Reporting Station
Haze Haze  
Wind Chill: 33°   Ceiling: Unl
Heat Index: 37°   Visibility: 5mi
Dew Point: 35°   Wind: 5mph
Humidity: 93%   Direction: 140°SE
Pressure: 29.64"   Gusts: NA
Location:  37.9°N, 97.78°W
Report Text: KHUT 290952Z AUTO 14004KT 5SM BR CLR 03/02 A2964 RMK AO2 SLP029 T00280017
Loading
Personal Weather Stations






























Interactive Weather Map New forecast layout! Learn more

10-Day Weather Forecast

Advertisements
Track Severe Weather on mobile